< < Back
Terminal Aerodrome Forecast


Current Version              Previous Versions:   1  2  3  4  5  6  7  8  9  

Terminal Aerodrome Forecast

590
FTUS42 KFFC 271720
TAFATL
TAF
KATL 271720Z 2718/2824 10010KT P6SM BKN040
     FM280100 08006KT P6SM FEW080
     FM281400 09008KT P6SM BKN045=

Latest METAR

780
SAUS70 KWBC 272200 RRH
MTRATL
METAR KATL 272152Z 14008KT 10SM FEW060 33/19 A3004 RMK AO2 SLP160 MDT CU
W T03280194


USA.gov is the U.S. government's official web portal to all federal, state and local government web resources and services.